Time;durP1;ratioP1;P1;durP2;ratioP2;P2;SDS_P1;SDS_P2;PMS_P1;PMS_P2;Temp;Humidity;BMP_temperature;BMP_pressure;BME280_temperature;BME280_humidity;BME280_pressure;Samples;Min_cycle;Max_cycle;Signal;HPM_P1;HPM_P2
2021/08/09 00:01:23;;;;;;;6.60;3.92;;;;;;;19.00;74.12;97623.48;1775746;81;21016;-82
2021/08/09 00:03:49;;;;;;;5.40;4.00;;;;;;;18.98;73.81;97622.72;1775696;81;20999;-82
2021/08/09 00:06:17;;;;;;;7.22;4.10;;;;;;;18.96;73.32;97632.72;1775658;81;20975;-83
2021/08/09 00:08:43;;;;;;;4.45;4.00;;;;;;;18.91;73.29;97636.67;1764496;81;20980;-83
2021/08/09 00:11:10;;;;;;;6.58;4.40;;;;;;;18.88;73.23;97632.38;1743561;82;21039;-82
2021/08/09 00:13:36;;;;;;;6.45;3.87;;;;;;;18.83;73.28;97639.43;1743482;82;20992;-84
2021/08/09 00:16:03;;;;;;;6.20;3.75;;;;;;;18.72;73.95;97636.14;1743284;82;21043;-83
2021/08/09 00:18:29;;;;;;;5.35;4.58;;;;;;;18.67;73.69;97633.38;1765112;81;21441;-82
2021/08/09 00:20:57;;;;;;;5.12;4.00;;;;;;;18.62;74.11;97638.20;1767862;81;21004;-81
2021/08/09 00:23:24;;;;;;;5.58;4.35;;;;;;;18.60;74.24;97639.17;1768455;81;21397;-83
2021/08/09 00:25:51;;;;;;;5.55;4.35;;;;;;;18.57;74.19;97644.73;1797959;80;21488;-83
2021/08/09 00:28:17;;;;;;;7.35;4.58;;;;;;;18.51;74.22;97641.64;1749914;81;21019;-83
2021/08/09 00:30:44;;;;;;;6.60;4.30;;;;;;;18.48;74.31;97631.98;1743328;82;21011;-82
2021/08/09 00:33:10;;;;;;;5.35;4.15;;;;;;;18.43;74.16;97640.80;1760483;81;20987;-82
2021/08/09 00:35:37;;;;;;;6.70;4.37;;;;;;;18.40;74.17;97650.41;1767102;81;21002;-83
2021/08/09 00:38:03;;;;;;;5.62;3.85;;;;;;;18.38;74.57;97653.66;1783961;80;20992;-83
2021/08/09 00:40:30;;;;;;;5.33;4.03;;;;;;;18.34;74.32;97655.70;1732592;83;20978;-83
2021/08/09 00:42:57;;;;;;;5.40;4.10;;;;;;;18.29;74.52;97656.02;1707533;83;21021;-83
2021/08/09 00:45:24;;;;;;;5.08;3.92;;;;;;;18.25;74.93;97661.20;1784705;80;20956;-83
2021/08/09 00:47:51;;;;;;;8.35;4.03;;;;;;;18.23;74.77;97668.47;1783762;80;20973;-83
2021/08/09 00:50:18;;;;;;;6.03;4.12;;;;;;;18.17;75.76;97668.42;1782835;80;21004;-83
2021/08/09 00:52:45;;;;;;;5.95;4.10;;;;;;;18.17;76.08;97667.55;1754299;80;21091;-83
2021/08/09 00:55:11;;;;;;;4.33;3.52;;;;;;;18.18;75.18;97662.55;1783028;80;20980;-83
2021/08/09 00:57:39;;;;;;;6.08;3.72;;;;;;;18.19;75.91;97663.80;1783445;79;20988;-83
2021/08/09 01:00:07;;;;;;;6.17;3.90;;;;;;;18.24;74.88;97669.34;1784584;80;21010;-83
2021/08/09 01:02:35;;;;;;;5.10;4.33;;;;;;;18.20;75.19;97663.33;1784111;80;21023;-83
2021/08/09 01:05:05;;;;;;;6.42;3.95;;;;;;;18.16;75.17;97668.52;1784482;80;21004;-83
2021/08/09 01:07:46;;;;;;;4.42;3.30;;;;;;;18.09;77.38;97662.69;1783848;80;20945;-83
2021/08/09 01:10:28;;;;;;;5.22;3.65;;;;;;;18.03;75.61;97667.94;1782484;80;21402;-83
2021/08/09 01:13:18;;;;;;;5.47;3.80;;;;;;;18.04;75.55;97671.02;1783218;80;21019;-83
2021/08/09 01:15:49;;;;;;;5.05;3.22;;;;;;;18.02;75.58;97669.41;1782764;80;21418;-83
2021/08/09 01:18:20;;;;;;;3.72;3.33;;;;;;;17.95;76.54;97670.28;1784046;80;20992;-82
2021/08/09 01:20:51;;;;;;;4.87;3.40;;;;;;;17.96;76.38;97670.66;1786428;80;21382;-83
2021/08/09 01:23:54;;;;;;;6.90;3.30;;;;;;;18.01;76.80;97673.89;1784863;80;21028;-83
2021/08/09 01:26:41;;;;;;;5.28;3.72;;;;;;;18.04;76.52;97669.68;1784788;80;21020;-83
2021/08/09 01:29:15;;;;;;;5.45;3.08;;;;;;;18.04;75.70;97676.85;1753785;82;20992;-83
2021/08/09 01:31:46;;;;;;;6.35;3.70;;;;;;;18.09;75.92;97676.09;1755342;81;20972;-85
2021/08/09 01:34:17;;;;;;;6.03;3.83;;;;;;;18.10;75.66;97671.61;1761619;81;21448;-83
2021/08/09 01:36:49;;;;;;;4.10;3.40;;;;;;;18.05;75.60;97667.84;1783031;80;21008;-83
2021/08/09 01:39:17;;;;;;;4.55;3.37;;;;;;;18.03;75.91;97674.64;1791128;80;21070;-83
2021/08/09 01:41:51;;;;;;;4.42;3.27;;;;;;;18.07;75.85;97676.20;1791035;80;21031;-83
2021/08/09 01:44:19;;;;;;;6.08;3.70;;;;;;;18.10;75.94;97682.34;1791039;80;21046;-83
2021/08/09 01:46:47;;;;;;;5.10;3.55;;;;;;;18.04;75.87;97676.38;1792031;80;21011;-82
2021/08/09 01:49:16;;;;;;;4.78;3.98;;;;;;;18.03;75.77;97667.94;1792740;80;20976;-80
2021/08/09 01:51:43;;;;;;;5.00;3.65;;;;;;;18.00;75.73;97671.30;1793052;80;21035;-83
2021/08/09 01:54:13;;;;;;;5.45;3.67;;;;;;;18.00;75.94;97674.86;1792771;80;21484;-83
2021/08/09 01:56:42;;;;;;;4.83;3.90;;;;;;;17.97;75.68;97679.56;1791646;80;20992;-82
2021/08/09 01:59:10;;;;;;;5.25;3.92;;;;;;;17.95;76.28;97676.48;1791187;80;20992;-81
2021/08/09 02:01:37;;;;;;;4.90;3.62;;;;;;;17.86;75.38;97676.23;1791016;80;20964;-81
2021/08/09 02:04:03;;;;;;;4.47;4.00;;;;;;;17.83;75.37;97675.95;1761988;80;21360;-81
2021/08/09 02:06:30;;;;;;;4.95;3.85;;;;;;;17.80;75.30;97680.16;1791154;80;21051;-81
2021/08/09 02:09:00;;;;;;;4.35;3.67;;;;;;;17.74;75.50;97675.20;1791216;80;20992;-80
2021/08/09 02:11:53;;;;;;;5.58;4.03;;;;;;;17.67;75.74;97676.07;1791349;80;21031;-81
2021/08/09 02:14:23;;;;;;;7.20;3.92;;;;;;;17.65;75.99;97681.52;1791635;80;21317;-81
2021/08/09 02:17:16;;;;;;;4.37;3.33;;;;;;;17.64;76.28;97689.19;1766936;80;21015;-81
2021/08/09 02:19:56;;;;;;;5.03;3.58;;;;;;;17.63;75.74;97691.49;1791223;80;21417;-81
2021/08/09 02:22:47;;;;;;;4.90;3.80;;;;;;;17.58;76.51;97696.75;1790993;80;20980;-81
2021/08/09 02:25:18;;;;;;;4.60;3.70;;;;;;;17.50;76.60;97704.81;1766602;80;21016;-82
2021/08/09 02:27:52;;;;;;;6.87;4.50;;;;;;;17.47;76.27;97732.24;1794187;80;21008;-81
2021/08/09 02:30:23;;;;;;;5.35;3.85;;;;;;;17.38;78.44;97808.22;1792896;80;21006;-83
2021/08/09 02:32:55;;;;;;;5.22;4.15;;;;;;;17.36;80.17;97844.09;1762921;80;20980;-81
2021/08/09 02:35:25;;;;;;;6.03;3.60;;;;;;;17.51;78.67;97848.52;1733771;80;21375;-81
2021/08/09 02:37:55;;;;;;;5.78;3.42;;;;;;;17.63;78.00;97832.17;1789566;79;20962;-82
2021/08/09 02:40:22;;;;;;;8.43;4.15;;;;;;;17.78;77.18;97836.21;1794609;79;21407;-82
2021/08/09 02:42:49;;;;;;;8.85;3.33;;;;;;;17.98;76.67;97852.37;1824229;78;21356;-82
2021/08/09 02:45:16;;;;;;;6.72;4.03;;;;;;;18.16;76.04;97861.61;1823513;79;21463;-82
2021/08/09 02:47:44;;;;;;;4.75;3.25;;;;;;;18.32;75.38;97868.22;1824489;79;21014;-81
2021/08/09 02:50:13;;;;;;;7.80;3.47;;;;;;;18.48;74.86;97866.77;1824378;79;21498;-82
2021/08/09 02:52:41;;;;;;;4.08;3.17;;;;;;;18.66;74.11;97874.10;1824338;79;21501;-82
2021/08/09 02:55:09;;;;;;;5.35;3.62;;;;;;;18.85;73.19;97877.78;1824277;79;20966;-82
2021/08/09 02:57:38;;;;;;;6.08;3.67;;;;;;;19.02;72.73;97877.17;1749719;80;20982;-82
2021/08/09 03:00:06;;;;;;;7.05;3.98;;;;;;;19.18;72.69;97872.14;1790276;80;21057;-82
2021/08/09 03:02:43;;;;;;;5.62;3.75;;;;;;;19.28;72.46;97875.93;1761846;80;21424;-82
2021/08/09 03:05:13;;;;;;;5.17;4.12;;;;;;;19.37;72.22;97885.19;1790354;80;21026;-82
2021/08/09 03:07:43;;;;;;;6.70;3.80;;;;;;;19.47;72.12;97898.37;1793605;79;20973;-82
2021/08/09 03:10:11;;;;;;;5.90;4.62;;;;;;;19.55;71.83;97901.04;1824148;79;21001;-82
2021/08/09 03:12:39;;;;;;;7.83;4.10;;;;;;;19.65;71.81;97916.91;1824010;78;20989;-81
2021/08/09 03:15:08;;;;;;;5.03;3.90;;;;;;;19.75;71.66;97931.45;1824377;79;21005;-82
2021/08/09 03:17:34;;;;;;;6.05;4.33;;;;;;;19.86;70.51;97932.06;1796668;79;21003;-81
2021/08/09 03:20:01;;;;;;;6.50;4.10;;;;;;;19.91;70.05;97927.22;1757399;82;21014;-81
2021/08/09 03:22:28;;;;;;;6.90;4.75;;;;;;;19.96;70.40;97926.89;1730879;82;21013;-81
2021/08/09 03:24:55;;;;;;;8.20;4.05;;;;;;;19.97;70.24;97929.98;1725100;82;21476;-81
2021/08/09 03:27:21;;;;;;;7.22;4.25;;;;;;;19.96;70.18;97933.62;1739685;80;20996;-81
2021/08/09 03:29:48;;;;;;;6.10;4.33;;;;;;;19.98;70.07;97937.58;1792144;80;20995;-82
2021/08/09 03:32:15;;;;;;;10.28;4.40;;;;;;;19.99;70.24;97946.90;1764266;81;21063;-82
2021/08/09 03:34:41;;;;;;;5.67;3.92;;;;;;;19.97;70.56;97947.47;1792024;80;21404;-82
2021/08/09 03:37:08;;;;;;;6.85;4.45;;;;;;;19.98;70.65;97950.56;1764501;80;20992;-87
2021/08/09 03:39:35;;;;;;;5.83;3.90;;;;;;;19.99;70.29;97962.16;1761266;80;21007;-87
2021/08/09 03:42:02;;;;;;;8.38;4.20;;;;;;;19.97;71.65;97964.95;1792069;80;21019;-88
2021/08/09 03:44:29;;;;;;;13.18;4.25;;;;;;;20.01;71.01;97965.63;1773682;80;20975;-87
2021/08/09 03:46:56;;;;;;;6.10;4.30;;;;;;;20.03;70.82;97967.72;1795704;80;20988;-88
2021/08/09 03:49:23;;;;;;;7.37;4.80;;;;;;;20.05;70.57;97962.60;1824268;79;21041;-88
2021/08/09 03:51:49;;;;;;;9.80;4.80;;;;;;;20.08;70.62;97966.03;1824379;79;21542;-88
2021/08/09 03:54:16;;;;;;;8.30;4.67;;;;;;;20.09;70.59;97971.31;1817508;79;20997;-88
2021/08/09 03:56:42;;;;;;;6.75;4.50;;;;;;;20.11;70.85;97972.56;1790666;80;20990;-88
2021/08/09 03:59:09;;;;;;;5.80;4.85;;;;;;;20.08;70.60;97968.25;1790445;80;21026;-88
2021/08/09 04:01:39;;;;;;;7.08;4.80;;;;;;;20.08;71.13;97973.63;1790591;80;21021;-88
2021/08/09 04:04:07;;;;;;;7.47;4.10;;;;;;;20.09;71.04;97975.34;1790987;79;21033;-87
2021/08/09 04:06:34;;;;;;;17.65;12.82;;;;;;;20.10;71.20;97974.37;1790236;80;21380;-87
2021/08/09 04:09:01;;;;;;;5.30;4.78;;;;;;;20.14;71.15;97989.34;1790324;80;21396;-87
2021/08/09 04:11:28;;;;;;;7.53;5.30;;;;;;;20.13;72.15;97999.73;1790332;80;21359;-87
2021/08/09 04:13:57;;;;;;;7.42;5.12;;;;;;;20.13;72.61;97992.13;1791829;79;21053;-88
2021/08/09 04:16:25;;;;;;;7.87;5.03;;;;;;;20.16;72.52;97998.19;1795068;79;21431;-88
2021/08/09 04:18:52;;;;;;;6.53;4.60;;;;;;;20.18;73.54;97989.52;1824416;79;21451;-87
2021/08/09 04:21:18;;;;;;;9.88;4.85;;;;;;;20.25;72.49;97971.59;1780855;79;21029;-87
2021/08/09 04:23:46;;;;;;;15.43;5.08;;;;;;;20.32;71.88;97962.12;1816171;78;20983;-87
2021/08/09 04:26:15;;;;;;;9.05;4.90;;;;;;;20.36;71.92;97964.98;1794932;79;20939;-87
2021/08/09 04:28:43;;;;;;;5.67;5.17;;;;;;;20.41;72.01;97964.17;1794911;80;20999;-87
2021/08/09 04:31:10;;;;;;;5.25;4.00;;;;;;;20.45;73.83;97976.92;1757378;81;20998;-87
2021/08/09 04:33:46;;;;;;;6.22;5.08;;;;;;;20.50;72.57;97977.93;1742744;80;20943;-86
2021/08/09 04:36:13;;;;;;;9.88;5.08;;;;;;;20.55;72.35;97979.34;1766782;80;21406;-86
2021/08/09 04:38:40;;;;;;;9.00;5.00;;;;;;;20.64;72.31;97971.08;1824443;79;21469;-87
2021/08/09 04:41:10;;;;;;;9.08;5.55;;;;;;;20.75;71.88;97974.86;1824261;78;21000;-87
2021/08/09 04:43:40;;;;;;;8.33;4.95;;;;;;;20.87;71.78;97970.42;1796330;78;21019;-86
2021/08/09 04:46:07;;;;;;;6.33;4.58;;;;;;;20.95;72.39;97962.66;1764620;81;20980;-87
2021/08/09 04:48:35;;;;;;;7.17;5.03;;;;;;;21.01;72.04;97958.66;1792174;80;21053;-87
2021/08/09 04:51:02;;;;;;;4.78;4.28;;;;;;;21.06;72.08;97945.20;1764782;81;21035;-87
2021/08/09 04:53:29;;;;;;;6.87;4.78;;;;;;;21.15;71.71;97940.99;1791009;80;21402;-87
2021/08/09 04:55:56;;;;;;;7.90;4.20;;;;;;;21.27;72.30;97934.30;1762825;81;21390;-87
2021/08/09 04:58:23;;;;;;;6.08;3.95;;;;;;;21.37;71.62;97933.98;1790577;80;21027;-87
2021/08/09 05:00:51;;;;;;;4.12;3.70;;;;;;;21.52;71.87;97950.85;1790717;80;21008;-88
2021/08/09 05:03:18;;;;;;;6.22;5.00;;;;;;;21.63;71.75;97955.41;1790982;79;20968;-88
2021/08/09 05:05:46;;;;;;;6.03;3.65;;;;;;;21.74;71.29;97964.08;1792356;80;21026;-87
2021/08/09 05:08:13;;;;;;;5.45;3.95;;;;;;;21.83;71.01;97959.80;1792202;80;21019;-86
2021/08/09 05:10:40;;;;;;;6.97;3.90;;;;;;;21.92;71.12;97956.91;1792386;80;21058;-88
2021/08/09 05:13:08;;;;;;;7.42;3.60;;;;;;;21.99;70.53;97958.14;1791854;80;20968;-87
2021/08/09 05:15:39;;;;;;;4.72;3.60;;;;;;;21.95;70.26;97944.03;1790613;80;21136;-88
2021/08/09 05:18:06;;;;;;;8.55;6.28;;;;;;;21.93;70.58;97937.03;1730524;80;21016;-88
2021/08/09 05:20:32;;;;;;;6.45;4.50;;;;;;;22.00;70.59;97941.84;1790547;80;21398;-87
2021/08/09 05:22:59;;;;;;;9.23;4.35;;;;;;;22.04;70.54;97944.30;1790687;80;20976;-88
2021/08/09 05:25:26;;;;;;;9.15;4.40;;;;;;;22.05;70.66;97935.22;1757465;80;21012;-87
2021/08/09 05:27:53;;;;;;;10.48;5.30;;;;;;;22.11;70.76;97935.61;1792112;79;20897;-89
2021/08/09 05:30:22;;;;;;;6.00;3.65;;;;;;;22.18;70.54;97940.04;1792033;80;20991;-88
2021/08/09 05:32:49;;;;;;;4.60;3.77;;;;;;;22.17;69.75;97961.75;1792157;80;20949;-88
2021/08/09 05:35:15;;;;;;;6.55;4.10;;;;;;;22.19;69.27;97971.92;1776752;81;21512;-88
2021/08/09 05:37:42;;;;;;;7.62;3.95;;;;;;;22.27;69.26;97987.91;1776324;81;21023;-88
2021/08/09 05:40:11;;;;;;;4.10;3.42;;;;;;;22.35;69.00;97998.10;1751498;81;20951;-88
2021/08/09 05:42:38;;;;;;;4.95;3.65;;;;;;;22.33;68.93;98004.09;1767430;81;21410;-88
2021/08/09 05:45:06;;;;;;;5.22;3.85;;;;;;;22.39;68.93;98004.95;1751485;81;20998;-86
2021/08/09 05:47:36;;;;;;;6.97;3.80;;;;;;;22.41;68.83;98011.11;1776934;79;21044;-87
2021/08/09 05:50:03;;;;;;;6.45;3.60;;;;;;;22.39;69.02;98023.02;1773525;80;21004;-88
2021/08/09 05:52:33;;;;;;;6.20;3.55;;;;;;;22.21;69.65;98051.80;1743949;82;21050;-87
2021/08/09 05:55:07;;;;;;;7.47;3.85;;;;;;;22.13;70.50;98077.19;1741276;82;21492;-88
2021/08/09 05:57:33;;;;;;;4.60;4.03;;;;;;;22.04;70.50;98093.56;1767443;81;21477;-86
2021/08/09 06:00:00;;;;;;;6.40;4.20;;;;;;;21.90;71.53;98089.22;1794212;79;21014;-87
2021/08/09 06:02:27;;;;;;;4.42;4.03;;;;;;;21.80;71.86;98059.86;1798325;79;20979;-86
2021/08/09 06:04:54;;;;;;;6.87;4.45;;;;;;;21.74;71.34;98032.38;1776752;81;21004;-87
2021/08/09 06:07:21;;;;;;;6.85;4.65;;;;;;;21.73;70.94;97949.75;1801523;80;20944;-86
2021/08/09 06:09:49;;;;;;;12.20;5.50;;;;;;;21.73;71.22;97923.25;1775163;81;21007;-87
2021/08/09 06:12:16;;;;;;;8.05;4.72;;;;;;;21.73;72.24;97930.86;1803760;80;21002;-86
2021/08/09 06:14:42;;;;;;;6.75;4.85;;;;;;;21.70;75.88;97947.72;1742685;82;20971;-86
2021/08/09 06:17:09;;;;;;;7.58;4.80;;;;;;;21.55;73.62;97946.55;1747136;81;20990;-86
2021/08/09 06:19:36;;;;;;;8.90;5.37;;;;;;;21.54;73.00;97915.69;1743960;82;21476;-87
2021/08/09 06:22:04;;;;;;;8.08;5.40;;;;;;;21.51;74.14;97891.17;1767574;81;21032;-87
2021/08/09 06:24:31;;;;;;;7.83;5.50;;;;;;;21.48;74.94;97884.66;1743885;82;21019;-87
2021/08/09 06:26:59;;;;;;;11.33;8.13;;;;;;;21.36;79.03;97886.45;1716280;82;21456;-87
2021/08/09 06:29:26;;;;;;;8.10;7.30;;;;;;;21.27;77.37;97883.97;1743964;82;21050;-88
2021/08/09 06:31:53;;;;;;;8.08;5.25;;;;;;;21.26;77.54;97888.13;1770201;80;21359;-88
2021/08/09 06:34:20;;;;;;;11.20;5.40;;;;;;;21.34;76.57;97892.45;1782143;80;20948;-88
2021/08/09 06:36:48;;;;;;;7.60;5.22;;;;;;;21.46;76.85;97886.11;1791974;80;20983;-87
2021/08/09 06:39:19;;;;;;;6.78;5.90;;;;;;;21.60;75.89;97870.72;1764318;81;21111;-88
2021/08/09 06:41:43;;;;;;;7.87;4.90;;;;;;;21.74;75.77;97860.23;1794333;79;21015;-88
2021/08/09 06:44:11;;;;;;;8.33;5.40;;;;;;;21.88;77.01;97863.22;1790301;79;21386;-88
2021/08/09 06:46:38;;;;;;;8.93;4.90;;;;;;;21.98;76.92;97872.30;1764351;81;21473;-88
2021/08/09 06:49:05;;;;;;;8.30;6.20;;;;;;;22.04;76.77;97879.03;1794716;80;21083;-89
2021/08/09 06:51:33;;;;;;;6.47;4.90;;;;;;;22.14;77.22;97884.58;1791586;79;21015;-89
2021/08/09 06:53:59;;;;;;;9.38;4.83;;;;;;;22.25;76.61;97889.97;1762912;81;21436;-88
2021/08/09 06:56:27;;;;;;;7.20;4.62;;;;;;;22.27;76.54;97883.98;1790307;80;20982;-88
2021/08/09 06:58:54;;;;;;;5.55;4.97;;;;;;;22.31;76.18;97888.63;1790276;80;21423;-88
2021/08/09 07:01:22;;;;;;;7.30;4.70;;;;;;;22.37;75.96;97881.86;1761780;80;21014;-88
2021/08/09 07:03:50;;;;;;;5.60;4.90;;;;;;;22.37;75.57;97884.56;1761630;80;22127;-88
2021/08/09 07:06:21;;;;;;;5.65;4.83;;;;;;;22.37;75.50;97876.46;1790444;80;21434;-88
2021/08/09 07:08:53;;;;;;;6.50;4.83;;;;;;;22.46;75.47;97887.88;1790217;79;20989;-88
2021/08/09 07:11:21;;;;;;;6.00;5.08;;;;;;;22.44;75.61;97902.48;1750164;80;21055;-88
2021/08/09 07:13:51;;;;;;;6.40;5.25;;;;;;;22.45;74.64;97901.02;1806716;79;20950;-88
2021/08/09 07:16:21;;;;;;;5.70;5.03;;;;;;;22.45;74.17;97901.53;1795099;79;21005;-87
2021/08/09 07:18:47;;;;;;;5.65;4.40;;;;;;;22.47;73.48;97896.38;1824439;79;21001;-87
2021/08/09 07:21:13;;;;;;;5.42;4.92;;;;;;;22.51;73.35;97904.56;1824259;78;21005;-88
2021/08/09 07:23:40;;;;;;;7.85;5.00;;;;;;;22.57;73.26;97902.38;1824191;79;21032;-87
2021/08/09 07:26:07;;;;;;;6.40;5.35;;;;;;;22.62;73.27;97908.30;1824202;78;21009;-87
2021/08/09 07:28:34;;;;;;;7.65;5.20;;;;;;;22.66;72.92;97912.45;1824258;79;21024;-88
2021/08/09 07:31:01;;;;;;;5.58;4.60;;;;;;;22.67;73.17;97902.03;1824204;79;21419;-88
2021/08/09 07:33:29;;;;;;;7.10;5.75;;;;;;;22.69;72.71;97889.25;1824175;79;21094;-87
2021/08/09 07:35:56;;;;;;;5.78;5.28;;;;;;;22.68;72.69;97902.39;1824279;79;20993;-88
2021/08/09 07:38:22;;;;;;;6.62;5.78;;;;;;;22.62;72.28;97899.69;1796017;79;21007;-87
2021/08/09 07:40:49;;;;;;;6.40;5.80;;;;;;;22.65;72.24;97908.03;1754658;81;21449;-88
2021/08/09 07:43:16;;;;;;;9.98;6.12;;;;;;;22.66;71.84;97911.09;1730928;82;21067;-87
2021/08/09 07:45:42;;;;;;;11.12;5.83;;;;;;;22.63;71.75;97912.20;1757151;82;20976;-88
2021/08/09 07:48:09;;;;;;;6.47;5.37;;;;;;;22.59;71.75;97909.38;1730590;83;20981;-88
2021/08/09 07:50:39;;;;;;;7.15;6.08;;;;;;;22.57;71.95;97904.60;1757338;82;21047;-87
2021/08/09 07:53:08;;;;;;;8.00;6.12;;;;;;;22.57;72.35;97908.66;1730707;82;21029;-88
2021/08/09 07:55:35;;;;;;;7.55;6.25;;;;;;;22.62;71.86;97917.24;1701101;82;21532;-89
2021/08/09 07:58:01;;;;;;;7.03;5.95;;;;;;;22.66;71.42;97916.02;1730712;82;21005;-88
2021/08/09 08:00:29;;;;;;;7.67;6.00;;;;;;;22.68;71.47;97909.98;1768573;80;20977;-88
2021/08/09 08:02:56;;;;;;;7.17;6.42;;;;;;;22.79;71.60;97913.17;1762678;81;20959;-88
2021/08/09 08:05:23;;;;;;;8.13;6.03;;;;;;;22.89;71.57;97905.67;1762635;81;21023;-88
2021/08/09 08:07:50;;;;;;;6.72;5.50;;;;;;;22.99;71.64;97903.92;1735166;81;20971;-88
2021/08/09 08:10:17;;;;;;;8.90;6.20;;;;;;;23.10;71.05;97900.82;1791676;80;20964;-88
2021/08/09 08:12:45;;;;;;;7.25;5.47;;;;;;;23.20;70.92;97908.05;1792147;79;21408;-88
2021/08/09 08:15:12;;;;;;;8.30;6.37;;;;;;;23.32;70.61;97912.05;1792154;80;21385;-88
2021/08/09 08:17:40;;;;;;;6.10;5.50;;;;;;;23.39;69.86;97907.89;1792084;80;21462;-88
2021/08/09 08:20:08;;;;;;;6.83;4.87;;;;;;;23.47;69.03;97907.24;1791772;80;21425;-88
2021/08/09 08:22:36;;;;;;;5.97;5.37;;;;;;;23.52;68.63;97907.71;1791817;80;21427;-88
2021/08/09 08:25:04;;;;;;;7.47;5.03;;;;;;;23.56;68.15;97905.59;1791928;80;21007;-87
2021/08/09 08:27:30;;;;;;;6.17;5.40;;;;;;;23.68;68.43;97913.16;1790122;80;21019;-88
2021/08/09 08:29:59;;;;;;;7.53;5.72;;;;;;;23.79;67.66;97914.96;1756599;80;21024;-88
2021/08/09 08:32:26;;;;;;;6.15;5.05;;;;;;;23.88;67.02;97908.76;1790397;80;21031;-88
2021/08/09 08:34:52;;;;;;;5.62;5.03;;;;;;;24.02;66.76;97912.97;1790043;80;21027;-88
2021/08/09 08:37:19;;;;;;;5.62;5.03;;;;;;;24.12;66.63;97908.50;1787324;80;20980;-88
2021/08/09 08:39:46;;;;;;;5.97;4.97;;;;;;;24.21;66.65;97905.98;1790212;80;21028;-88
2021/08/09 08:42:14;;;;;;;5.25;4.75;;;;;;;24.28;65.22;97897.67;1790098;80;21028;-87
2021/08/09 08:44:44;;;;;;;8.68;5.20;;;;;;;24.35;64.82;97897.51;1790223;80;21008;-87
2021/08/09 08:47:16;;;;;;;8.93;5.58;;;;;;;24.54;64.71;97895.88;1790121;80;21446;-88
2021/08/09 08:49:44;;;;;;;5.80;5.30;;;;;;;24.54;64.71;97895.88;1790208;80;21382;-88
2021/08/09 08:52:12;;;;;;;6.40;4.97;;;;;;;24.74;64.07;97883.75;1790176;80;21370;-87
2021/08/09 08:54:39;;;;;;;5.40;4.90;;;;;;;24.74;64.07;97883.75;1791524;80;20912;-87
2021/08/09 08:57:19;;;;;;;5.97;4.80;;;;;;;24.84;62.31;97879.72;1792859;80;21003;-88
2021/08/09 08:59:47;;;;;;;6.65;5.20;;;;;;;25.10;63.78;97873.28;1791995;80;20976;-89
2021/08/09 09:02:39;;;;;;;5.45;4.20;;;;;;;25.10;63.78;97873.28;1789290;80;20948;-90
2021/08/09 09:05:14;;;;;;;4.92;4.42;;;;;;;25.23;62.94;97878.91;1739647;80;20936;-88
2021/08/09 09:07:51;;;;;;;4.55;4.15;;;;;;;25.33;59.33;97877.57;1758325;80;20975;-87
2021/08/09 09:10:25;;;;;;;4.97;4.40;;;;;;;25.40;60.91;97874.14;1791957;80;21026;-88
2021/08/09 09:13:10;;;;;;;5.35;4.25;;;;;;;25.54;61.02;97870.65;1764801;80;21015;-87
2021/08/09 09:16:05;;;;;;;4.70;4.30;;;;;;;25.67;61.56;97869.89;1746172;80;20971;-88
2021/08/09 09:18:56;;;;;;;7.05;4.20;;;;;;;25.79;61.17;97868.36;1763188;80;20988;-88
2021/08/09 09:21:36;;;;;;;4.80;4.35;;;;;;;25.93;60.67;97867.91;1758325;80;20964;-89
2021/08/09 09:24:15;;;;;;;;;;;;;;;26.05;60.34;97856.86;1793640;80;20991;-88
2021/08/09 09:26:49;;;;;;;5.10;4.60;;;;;;;26.17;58.41;97858.89;1761074;80;20088;-89
2021/08/09 09:29:19;;;;;;;7.30;4.08;;;;;;;26.28;59.41;97849.74;1737308;80;20975;-89
2021/08/09 09:31:52;;;;;;;4.72;4.25;;;;;;;26.42;58.57;97853.33;1731169;80;21489;-89
2021/08/09 09:34:21;;;;;;;4.67;3.80;;;;;;;26.58;58.21;97849.09;1790587;78;21457;-88
2021/08/09 09:36:58;;;;;;;4.62;4.22;;;;;;;26.74;57.72;97845.72;1790487;80;21003;-88
2021/08/09 09:39:40;;;;;;;6.60;5.85;;;;;;;26.91;56.60;97840.45;1790328;80;21461;-89
2021/08/09 09:42:12;;;;;;;4.95;4.45;;;;;;;27.05;56.67;97833.64;1756877;80;20996;-89
2021/08/09 09:44:40;;;;;;;5.05;4.60;;;;;;;27.13;55.63;97833.24;1787814;80;20996;-88
2021/08/09 09:47:28;;;;;;;5.35;4.08;;;;;;;27.25;55.94;97830.27;1790497;80;20980;-89
2021/08/09 09:49:58;;;;;;;4.75;3.80;;;;;;;27.36;55.74;97822.39;1790298;80;21031;-88
2021/08/09 09:52:40;;;;;;;6.12;4.03;;;;;;;27.47;55.03;97824.85;1790159;80;20952;-88
2021/08/09 09:55:10;;;;;;;4.92;4.00;;;;;;;27.58;53.47;97822.39;1790462;79;20976;-89
2021/08/09 09:57:39;;;;;;;5.58;4.60;;;;;;;27.64;53.41;97820.91;1790184;80;21011;-88
2021/08/09 10:00:13;;;;;;;4.60;4.05;;;;;;;27.73;54.01;97817.23;1790419;80;21031;-89
2021/08/09 10:02:44;;;;;;;4.17;3.80;;;;;;;27.86;53.14;97814.61;1790789;80;21014;-88
2021/08/09 10:05:16;;;;;;;4.20;3.80;;;;;;;28.00;53.44;97810.42;1790171;80;21027;-88
2021/08/09 10:07:48;;;;;;;5.45;3.95;;;;;;;28.14;53.45;97818.52;1790326;80;20972;-88
2021/08/09 10:10:15;;;;;;;6.00;4.03;;;;;;;28.26;53.19;97812.28;1757342;80;21054;-88
2021/08/09 10:12:50;;;;;;;3.83;3.52;;;;;;;28.35;52.38;97815.92;1756239;80;21023;-88
2021/08/09 10:15:23;;;;;;;;;;;;;;;28.42;52.32;97811.01;1765941;80;21012;-88
2021/08/09 10:17:54;;;;;;;4.47;3.95;;;;;;;28.54;51.84;97811.56;1710970;80;20084;-89
2021/08/09 10:20:26;;;;;;;4.28;3.65;;;;;;;28.68;50.56;97804.61;1762605;80;20968;-89
2021/08/09 10:23:03;;;;;;;4.72;3.85;;;;;;;28.84;51.00;97802.94;1790158;80;21377;-88
2021/08/09 10:25:50;;;;;;;4.28;3.87;;;;;;;28.94;50.78;97805.03;1762089;80;21000;-89
2021/08/09 10:28:19;;;;;;;4.47;3.60;;;;;;;29.03;50.09;97800.96;1754983;80;20964;-90
2021/08/09 10:30:50;;;;;;;8.60;6.25;;;;;;;29.11;49.93;97801.81;1738347;80;20981;-89
2021/08/09 10:33:40;;;;;;;5.08;4.67;;;;;;;29.19;49.03;97796.88;1783130;80;20976;-89
2021/08/09 10:36:07;;;;;;;6.67;4.95;;;;;;;29.24;49.09;97801.30;1781401;80;20996;-89
2021/08/09 10:38:36;;;;;;;4.12;3.72;;;;;;;29.38;49.08;97801.66;1755517;82;21023;-89
2021/08/09 10:41:17;;;;;;;4.40;4.00;;;;;;;29.50;47.88;97799.47;1753572;82;21039;-89
2021/08/09 10:44:12;;;;;;;4.40;3.80;;;;;;;29.56;47.77;97807.49;1753873;82;20972;-89
2021/08/09 10:46:43;;;;;;;4.42;3.55;;;;;;;29.68;47.28;97799.80;1753346;80;21059;-89
2021/08/09 10:49:42;;;;;;;3.85;3.55;;;;;;;30.22;46.87;97801.90;1755214;82;20992;-89
2021/08/09 10:52:09;;;;;;;4.62;4.08;;;;;;;31.47;46.37;97807.52;1753974;82;21119;-89
2021/08/09 10:54:36;;;;;;;4.20;3.60;;;;;;;32.81;43.04;97796.46;1734290;80;21539;-88
2021/08/09 10:57:05;;;;;;;4.58;3.52;;;;;;;33.86;39.80;97802.03;1758882;80;21417;-90
2021/08/09 10:59:43;;;;;;;4.22;3.50;;;;;;;34.80;39.21;97797.56;1782908;80;21453;-88
2021/08/09 11:02:24;;;;;;;4.10;3.80;;;;;;;35.50;36.54;97796.45;1782870;80;21036;-89
2021/08/09 11:05:19;;;;;;;4.40;3.60;;;;;;;36.23;35.93;97791.94;1758887;80;21374;-90
2021/08/09 11:07:47;;;;;;;;;;;;;;;36.93;34.17;97793.15;1785856;80;21051;-89
2021/08/09 11:10:26;;;;;;;4.15;3.37;;;;;;;37.47;33.12;97786.42;1758385;80;20140;-90
2021/08/09 11:13:00;;;;;;;4.65;4.00;;;;;;;37.85;32.82;97786.86;1708077;80;20989;-89
2021/08/09 11:15:29;;;;;;;4.53;3.90;;;;;;;38.33;31.78;97789.14;1759073;80;21445;-90
2021/08/09 11:17:59;;;;;;;4.05;3.65;;;;;;;38.78;31.53;97786.06;1759552;80;20989;-89
2021/08/09 11:20:33;;;;;;;9.73;8.78;;;;;;;39.10;31.17;97785.53;1783292;80;21039;-90
2021/08/09 11:23:14;;;;;;;9.55;6.85;;;;;;;39.52;30.41;97784.13;1758720;80;21378;-89
2021/08/09 11:25:49;;;;;;;4.17;3.77;;;;;;;39.94;28.45;97790.66;1784390;80;21032;-90
2021/08/09 11:28:24;;;;;;;8.03;4.17;;;;;;;40.17;28.26;97784.27;1784599;80;21043;-89
2021/08/09 11:31:02;;;;;;;6.50;4.17;;;;;;;40.70;28.85;97784.28;1731615;80;21028;-89
2021/08/09 11:33:41;;;;;;;4.62;4.10;;;;;;;41.11;26.98;97785.64;1760494;80;21112;-89
2021/08/09 11:36:12;;;;;;;6.87;4.30;;;;;;;41.42;26.56;97785.34;1746826;80;21050;-89
2021/08/09 11:38:52;;;;;;;4.40;4.00;;;;;;;41.72;26.73;97780.55;1768355;81;21034;-90
2021/08/09 11:41:26;;;;;;;5.67;4.03;;;;;;;42.13;25.83;97783.13;1743471;81;21027;-90
2021/08/09 11:44:08;;;;;;;4.67;4.17;;;;;;;42.04;25.28;97783.56;1718414;81;21000;-90
2021/08/09 11:46:49;;;;;;;4.78;4.37;;;;;;;42.13;25.16;97779.77;1744516;81;21014;-89
2021/08/09 11:49:22;;;;;;;4.85;4.35;;;;;;;42.38;25.18;97779.84;1743447;81;21020;-89